Time;durP1;ratioP1;P1;durP2;ratioP2;P2;SDS_P1;SDS_P2;PMS_P1;PMS_P2;Temp;Humidity;BMP_temperature;BMP_pressure;BME280_temperature;BME280_humidity;BME280_pressure;Samples;Min_cycle;Max_cycle;Signal;HPM_P1;HPM_P2
2023/02/16 00:00:46;;;;;;;;;;;;;;;;;;5085436;28;19912;-62
2023/02/16 00:03:12;;;;;;;;;;;;;;;;;;5092038;28;20010;-63
2023/02/16 00:05:37;;;;;;;;;;;;;;;;;;5091748;28;19969;-63
2023/02/16 00:08:03;;;;;;;;;;;;;;;;;;5092214;28;20379;-59
2023/02/16 00:10:29;;;;;;;;;;;;;;;;;;5092058;28;19912;-63
2023/02/16 00:15:40;;;;;;;;;;;;;;;;;;5092075;28;19941;-62
2023/02/16 00:18:06;;;;;;;;;;;;;;;;;;5092118;28;19912;-62
2023/02/16 00:20:32;;;;;;;;;;;;;;;;;;5091668;28;19965;-62
2023/02/16 00:22:58;;;;;;;;;;;;;;;;;;5091958;28;19911;-61
2023/02/16 00:25:24;;;;;;;;;;;;;;;;;;5091722;28;19924;-62
2023/02/16 00:27:50;;;;;;;;;;;;;;;;;;5092089;28;20337;-63
2023/02/16 00:30:16;;;;;;;;;;;;;;;;;;5091857;28;19908;-62
2023/02/16 00:32:42;;;;;;;;;;;;;;;;;;5091993;28;19965;-63
2023/02/16 00:35:08;;;;;;;;;;;;;;;;;;5091379;28;19908;-63
2023/02/16 00:37:33;;;;;;;;;;;;;;;;;;5091767;28;20045;-62
2023/02/16 00:39:59;;;;;;;;;;;;;;;;;;5091618;28;20393;-62
2023/02/16 00:42:25;;;;;;;;;;;;;;;;;;5091905;28;19939;-63
2023/02/16 00:44:51;;;;;;;;;;;;;;;;;;5092000;28;19935;-63
2023/02/16 00:47:18;;;;;;;;;;;;;;;;;;5091513;28;19916;-62
2023/02/16 00:49:44;;;;;;;;;;;;;;;;;;5091575;28;20387;-62
2023/02/16 00:52:10;;;;;;;;;;;;;;;;;;5091643;28;19940;-63
2023/02/16 00:54:36;;;;;;;;;;;;;;;;;;5091803;28;20008;-63
2023/02/16 00:57:02;;;;;;;;;;;;;;;;;;5091991;28;19908;-62
2023/02/16 00:59:28;;;;;;;;;;;;;;;;;;5091822;28;19908;-63
2023/02/16 01:01:55;;;;;;;;;;;;;;;;;;5073145;28;19915;-63
2023/02/16 01:04:21;;;;;;;;;;;;;;;;;;5091054;28;19945;-61
2023/02/16 01:12:16;;;;;;;;;;;;;;;;;;5092326;28;19919;-62
2023/02/16 01:14:42;;;;;;;;;;;;;;;;;;5095388;28;19912;-63
2023/02/16 01:17:08;;;;;;;;;;;;;;;;;;5095206;28;19912;-62
2023/02/16 01:19:34;;;;;;;;;;;;;;;;;;5095419;28;20376;-62
2023/02/16 01:22:00;;;;;;;;;;;;;;;;;;5077184;28;20107;-62
2023/02/16 01:24:26;;;;;;;;;;;;;;;;;;5094991;28;20367;-63
2023/02/16 01:26:52;;;;;;;;;;;;;;;;;;5094877;28;19919;-61
2023/02/16 01:29:18;;;;;;;;;;;;;;;;;;5077182;28;19912;-63
2023/02/16 01:31:44;;;;;;;;;;;;;;;;;;5094792;28;19908;-63
2023/02/16 01:34:10;;;;;;;;;;;;;;;;;;5095492;28;19916;-64
2023/02/16 01:36:36;;;;;;;;;;;;;;;;;;5094661;28;20054;-63
2023/02/16 01:39:01;;;;;;;;;;;;;;;;;;5094769;28;20410;-62
2023/02/16 01:41:27;;;;;;;;;;;;;;;;;;5094633;28;20400;-63
2023/02/16 01:43:53;;;;;;;;;;;;;;;;;;5095147;28;20402;-62
2023/02/16 01:46:19;;;;;;;;;;;;;;;;;;5094463;28;19912;-62
2023/02/16 01:48:45;;;;;;;;;;;;;;;;;;5094826;28;19912;-62
2023/02/16 01:51:11;;;;;;;;;;;;;;;;;;5094652;28;19915;-63
2023/02/16 01:53:37;;;;;;;;;;;;;;;;;;5094449;28;19912;-63
2023/02/16 01:56:03;;;;;;;;;;;;;;;;;;5094460;28;20386;-61
2023/02/16 01:58:29;;;;;;;;;;;;;;;;;;5094721;28;20293;-63
2023/02/16 02:00:55;;;;;;;;;;;;;;;;;;5094048;28;19918;-61
2023/02/16 02:06:06;;;;;;;;;;;;;;;;;;5094407;28;20279;-61
2023/02/16 02:08:32;;;;;;;;;;;;;;;;;;5075886;28;19912;-62
2023/02/16 02:10:57;;;;;;;;;;;;;;;;;;5090211;28;20000;-62
2023/02/16 02:13:23;;;;;;;;;;;;;;;;;;5074251;28;20029;-64
2023/02/16 02:15:49;;;;;;;;;;;;;;;;;;5074098;28;19952;-62
2023/02/16 02:18:15;;;;;;;;;;;;;;;;;;5074412;28;20333;-61
2023/02/16 02:23:32;;;;;;;;;;;;;;;;;;5074198;28;19955;-62
2023/02/16 02:25:58;;;;;;;;;;;;;;;;;;5072427;28;19920;-63
2023/02/16 02:28:24;;;;;;;;;;;;;;;;;;5073980;28;20418;-63
2023/02/16 02:30:50;;;;;;;;;;;;;;;;;;5074073;28;19908;-62
2023/02/16 02:33:16;;;;;;;;;;;;;;;;;;5074009;28;19915;-63
2023/02/16 02:35:42;;;;;;;;;;;;;;;;;;5073805;28;19913;-63
2023/02/16 02:38:08;;;;;;;;;;;;;;;;;;5073844;28;19915;-63
2023/02/16 02:40:34;;;;;;;;;;;;;;;;;;5082704;28;19912;-62
2023/02/16 02:43:00;;;;;;;;;;;;;;;;;;5093573;28;19969;-63
2023/02/16 02:45:26;;;;;;;;;;;;;;;;;;5085609;28;19954;-63
2023/02/16 02:47:52;;;;;;;;;;;;;;;;;;5073639;28;19919;-62
2023/02/16 02:50:17;;;;;;;;;;;;;;;;;;5073915;28;19932;-63
2023/02/16 02:52:43;;;;;;;;;;;;;;;;;;5073525;28;20284;-62
2023/02/16 03:00:48;;;;;;;;;;;;;;;;;;5093278;28;19920;-61
2023/02/16 03:03:14;;;;;;;;;;;;;;;;;;5048917;28;19958;-63
2023/02/16 03:05:40;;;;;;;;;;;;;;;;;;5093133;28;19919;-63
2023/02/16 03:08:12;;;;;;;;;;;;;;;;;;5093266;28;19958;-62
2023/02/16 03:13:24;;;;;;;;;;;;;;;;;;5049802;28;19917;-63
2023/02/16 03:15:54;;;;;;;;;;;;;;;;;;5089641;28;19913;-63
2023/02/16 03:29:21;;;;;;;;;;;;;;;;;;5092813;28;20292;-62
2023/02/16 03:31:49;;;;;;;;;;;;;;;;;;5086423;28;19909;-60
2023/02/16 03:34:15;;;;;;;;;;;;;;;;;;5072719;28;19995;-62
2023/02/16 03:36:41;;;;;;;;;;;;;;;;;;5072277;28;20392;-62
2023/02/16 03:39:07;;;;;;;;;;;;;;;;;;5072863;28;19912;-63
2023/02/16 03:41:33;;;;;;;;;;;;;;;;;;5072672;28;19913;-63
2023/02/16 03:43:59;;;;;;;;;;;;;;;;;;5072709;28;19952;-61
2023/02/16 03:46:25;;;;;;;;;;;;;;;;;;5072198;28;19917;-62
2023/02/16 03:48:51;;;;;;;;;;;;;;;;;;5072716;28;19964;-63
2023/02/16 03:51:17;;;;;;;;;;;;;;;;;;5078723;28;19912;-63
2023/02/16 03:53:43;;;;;;;;;;;;;;;;;;5073977;28;20388;-62
2023/02/16 03:56:09;;;;;;;;;;;;;;;;;;5092221;28;19918;-63
2023/02/16 03:58:35;;;;;;;;;;;;;;;;;;5074189;28;20322;-62
2023/02/16 04:01:01;;;;;;;;;;;;;;;;;;5089847;28;19923;-63
2023/02/16 04:03:27;;;;;;;;;;;;;;;;;;5092218;28;19916;-63
2023/02/16 04:05:53;;;;;;;;;;;;;;;;;;5092213;28;19923;-63
2023/02/16 04:08:18;;;;;;;;;;;;;;;;;;5092424;28;19912;-64
2023/02/16 04:10:44;;;;;;;;;;;;;;;;;;5092321;28;20284;-63
2023/02/16 04:13:10;;;;;;;;;;;;;;;;;;5090739;28;19912;-62
2023/02/16 04:15:36;;;;;;;;;;;;;;;;;;5091088;28;19966;-64
2023/02/16 04:18:02;;;;;;;;;;;;;;;;;;5065907;28;20380;-61
2023/02/16 04:20:28;;;;;;;;;;;;;;;;;;5072089;28;19940;-62
2023/02/16 04:22:54;;;;;;;;;;;;;;;;;;5078834;28;19912;-61
2023/02/16 04:25:20;;;;;;;;;;;;;;;;;;5091868;28;20291;-63
2023/02/16 04:27:46;;;;;;;;;;;;;;;;;;5091989;28;20002;-60
2023/02/16 04:30:12;;;;;;;;;;;;;;;;;;5091944;28;19954;-63
2023/02/16 04:32:38;;;;;;;;;;;;;;;;;;5092224;28;19919;-62
2023/02/16 04:35:03;;;;;;;;;;;;;;;;;;5091357;28;19947;-63
2023/02/16 04:37:29;;;;;;;;;;;;;;;;;;5072526;28;19909;-63
2023/02/16 04:39:55;;;;;;;;;;;;;;;;;;5091757;28;19919;-63
2023/02/16 04:42:21;;;;;;;;;;;;;;;;;;5090021;28;19912;-63
2023/02/16 04:44:47;;;;;;;;;;;;;;;;;;5091578;28;19955;-62
2023/02/16 04:47:13;;;;;;;;;;;;;;;;;;5084456;28;19977;-64
2023/02/16 04:49:39;;;;;;;;;;;;;;;;;;5087404;28;19919;-63
2023/02/16 04:52:05;;;;;;;;;;;;;;;;;;5080989;28;19956;-62
2023/02/16 04:54:31;;;;;;;;;;;;;;;;;;5089521;28;19912;-62
2023/02/16 04:56:57;;;;;;;;;;;;;;;;;;5095662;28;19912;-61
2023/02/16 04:59:23;;;;;;;;;;;;;;;;;;5095590;28;20006;-63
2023/02/16 05:01:49;;;;;;;;;;;;;;;;;;5076047;28;20015;-61
2023/02/16 05:04:15;;;;;;;;;;;;;;;;;;5060508;28;20054;-62
2023/02/16 05:06:41;;;;;;;;;;;;;;;;;;5055185;28;19919;-62
2023/02/16 05:09:07;;;;;;;;;;;;;;;;;;5054916;28;19909;-62
2023/02/16 05:17:02;;;;;;;;;;;;;;;;;;5055505;28;20280;-63
2023/02/16 05:19:28;;;;;;;;;;;;;;;;;;5055295;28;19909;-64
2023/02/16 05:21:54;;;;;;;;;;;;;;;;;;5054620;28;20000;-62
2023/02/16 05:24:19;;;;;;;;;;;;;;;;;;5055230;28;19961;-62
2023/02/16 05:26:45;;;;;;;;;;;;;;;;;;5112392;22;19931;-51
2023/02/16 05:29:11;;;;;;;;;;;;;;;;;;5097713;28;20299;-51
2023/02/16 05:31:37;;;;;;;;;;;;;;;;;;5115740;28;20368;-51
2023/02/16 05:34:03;;;;;;;;;;;;;;;;;;5115847;28;19907;-51
2023/02/16 05:36:29;;;;;;;;;;;;;;;;;;5106036;28;19908;-53
2023/02/16 05:38:55;;;;;;;;;;;;;;;;;;5095165;28;19912;-50
2023/02/16 05:41:24;;;;;;;;;;;;;;;;;;5095436;28;19953;-51
2023/02/16 05:43:50;;;;;;;;;;;;;;;;;;5095216;28;19995;-53
2023/02/16 05:46:15;;;;;;;;;;;;;;;;;;5095010;28;19996;-51
2023/02/16 05:48:41;;;;;;;;;;;;;;;;;;5095232;28;19909;-52
2023/02/16 05:51:07;;;;;;;;;;;;;;;;;;5095106;28;19978;-51
2023/02/16 05:53:33;;;;;;;;;;;;;;;;;;5094981;28;20375;-55
2023/02/16 05:55:59;;;;;;;;;;;;;;;;;;5095010;28;19943;-54
2023/02/16 05:58:25;;;;;;;;;;;;;;;;;;5076264;28;19908;-51
2023/02/16 06:00:51;;;;;;;;;;;;;;;;;;5094818;28;20399;-50
2023/02/16 06:03:17;;;;;;;;;;;;;;;;;;5094794;28;20273;-51
2023/02/16 06:05:43;;;;;;;;;;;;;;;;;;5076399;28;20257;-53
2023/02/16 06:08:09;;;;;;;;;;;;;;;;;;5094621;28;20018;-53
2023/02/16 06:10:35;;;;;;;;;;;;;;;;;;5094727;28;19962;-55
2023/02/16 06:13:01;;;;;;;;;;;;;;;;;;5094589;28;19958;-52
2023/02/16 06:15:26;;;;;;;;;;;;;;;;;;5094479;28;19915;-50
2023/02/16 06:17:52;;;;;;;;;;;;;;;;;;5094517;28;19934;-50
2023/02/16 06:20:19;;;;;;;;;;;;;;;;;;5094508;28;20368;-51
2023/02/16 06:22:45;;;;;;;;;;;;;;;;;;5094469;28;19931;-53
2023/02/16 06:25:11;;;;;;;;;;;;;;;;;;5094237;28;19915;-50
2023/02/16 06:27:37;;;;;;;;;;;;;;;;;;5094077;28;19916;-53
2023/02/16 06:30:03;;;;;;;;;;;;;;;;;;5094365;28;20019;-51
2023/02/16 06:32:29;;;;;;;;;;;;;;;;;;5094352;28;20360;-51
2023/02/16 06:34:54;;;;;;;;;;;;;;;;;;5094100;28;19916;-50
2023/02/16 06:37:21;;;;;;;;;;;;;;;;;;5094189;28;19912;-51
2023/02/16 06:39:47;;;;;;;;;;;;;;;;;;5094242;28;19916;-52
2023/02/16 06:42:12;;;;;;;;;;;;;;;;;;5094092;28;19910;-51
2023/02/16 06:44:43;;;;;;;;;;;;;;;;;;5093883;28;20285;-50
2023/02/16 06:47:08;;;;;;;;;;;;;;;;;;5094018;28;20299;-51
2023/02/16 06:49:34;;;;;;;;;;;;;;;;;;5075654;28;19918;-50
2023/02/16 06:52:00;;;;;;;;;;;;;;;;;;5093888;28;20006;-53
2023/02/16 06:54:26;;;;;;;;;;;;;;;;;;5093596;28;20041;-51
2023/02/16 06:56:52;;;;;;;;;;;;;;;;;;5093931;28;19908;-51
2023/02/16 06:59:18;;;;;;;;;;;;;;;;;;5093919;28;19908;-52
2023/02/16 07:01:44;;;;;;;;;;;;;;;;;;5075525;28;19974;-51
2023/02/16 07:04:10;;;;;;;;;;;;;;;;;;5093648;28;20380;-46
2023/02/16 07:06:36;;;;;;;;;;;;;;;;;;5093337;28;20299;-48
2023/02/16 07:09:02;;;;;;;;;;;;;;;;;;5093486;28;19908;-50
2023/02/16 07:11:28;;;;;;;;;;;;;;;;;;5092868;28;19908;-48
2023/02/16 07:13:54;;;;;;;;;;;;;;;;;;5093544;28;19928;-46
2023/02/16 07:16:20;;;;;;;;;;;;;;;;;;5093306;28;19915;-47
2023/02/16 07:18:46;;;;;;;;;;;;;;;;;;5093414;28;19909;-48
2023/02/16 07:21:12;;;;;;;;;;;;;;;;;;5093494;28;20318;-46
2023/02/16 07:23:38;;;;;;;;;;;;;;;;;;5093910;28;19908;-47
2023/02/16 07:26:04;;;;;;;;;;;;;;;;;;5092942;28;20333;-51
2023/02/16 07:28:30;;;;;;;;;;;;;;;;;;5095567;28;19942;-53
2023/02/16 07:30:55;;;;;;;;;;;;;;;;;;5074527;28;19935;-51
2023/02/16 07:33:21;;;;;;;;;;;;;;;;;;5095658;28;19956;-53
2023/02/16 07:35:49;;;;;;;;;;;;;;;;;;5102381;28;19912;-52
2023/02/16 07:38:14;;;;;;;;;;;;;;;;;;5102177;28;20307;-52
2023/02/16 07:40:40;;;;;;;;;;;;;;;;;;5106576;28;19908;-56
2023/02/16 07:43:06;;;;;;;;;;;;;;;;;;5102894;28;19982;-51
2023/02/16 07:45:34;;;;;;;;;;;;;;;;;;5092076;28;20217;-51
2023/02/16 07:48:00;;;;;;;;;;;;;;;;;;5092904;28;19918;-54
2023/02/16 07:50:26;;;;;;;;;;;;;;;;;;5103318;28;19994;-51
2023/02/16 07:52:52;;;;;;;;;;;;;;;;;;5094973;28;19994;-50
2023/02/16 07:55:18;;;;;;;;;;;;;;;;;;5112976;28;20451;-51
2023/02/16 07:57:44;;;;;;;;;;;;;;;;;;5113163;28;19995;-50
2023/02/16 08:00:10;;;;;;;;;;;;;;;;;;5113091;28;19908;-50
2023/02/16 08:02:36;;;;;;;;;;;;;;;;;;5113039;28;19908;-52
2023/02/16 08:05:02;;;;;;;;;;;;;;;;;;5112850;28;20394;-52
2023/02/16 08:07:28;;;;;;;;;;;;;;;;;;5112845;28;19955;-51
2023/02/16 08:09:54;;;;;;;;;;;;;;;;;;5112963;28;19943;-52
2023/02/16 08:12:20;;;;;;;;;;;;;;;;;;5113111;28;19908;-51
2023/02/16 08:14:46;;;;;;;;;;;;;;;;;;5112799;28;20292;-50
2023/02/16 08:17:12;;;;;;;;;;;;;;;;;;5112787;28;19908;-52
2023/02/16 08:19:39;;;;;;;;;;;;;;;;;;5113035;28;19915;-53
2023/02/16 08:22:05;;;;;;;;;;;;;;;;;;5112676;28;19912;-55
2023/02/16 08:24:31;;;;;;;;;;;;;;;;;;5094397;28;19908;-52
2023/02/16 08:26:56;;;;;;;;;;;;;;;;;;5100544;28;19962;-53
2023/02/16 08:29:22;;;;;;;;;;;;;;;;;;5092512;28;19908;-52
2023/02/16 08:31:48;;;;;;;;;;;;;;;;;;5092521;28;19908;-55
2023/02/16 08:34:14;;;;;;;;;;;;;;;;;;5074199;28;20354;-51
2023/02/16 08:36:40;;;;;;;;;;;;;;;;;;5097191;28;19912;-49
2023/02/16 08:39:06;;;;;;;;;;;;;;;;;;5092292;28;19908;-53
2023/02/16 08:41:32;;;;;;;;;;;;;;;;;;5092207;28;19962;-50
2023/02/16 08:43:59;;;;;;;;;;;;;;;;;;5091882;28;19912;-54
2023/02/16 08:46:25;;;;;;;;;;;;;;;;;;5091906;28;20367;-51
2023/02/16 08:48:51;;;;;;;;;;;;;;;;;;5092168;28;19998;-51
2023/02/16 08:51:17;;;;;;;;;;;;;;;;;;5092089;28;19939;-50
2023/02/16 08:53:43;;;;;;;;;;;;;;;;;;5092134;28;20265;-51
2023/02/16 08:56:11;;;;;;;;;;;;;;;;;;5091934;28;19908;-51
2023/02/16 08:58:37;;;;;;;;;;;;;;;;;;5091611;28;20276;-51
2023/02/16 09:01:03;;;;;;;;;;;;;;;;;;5092044;28;19919;-51
2023/02/16 09:03:31;;;;;;;;;;;;;;;;;;5097413;28;20322;-52
2023/02/16 09:05:57;;;;;;;;;;;;;;;;;;5090946;28;19912;-54
2023/02/16 09:08:23;;;;;;;;;;;;;;;;;;5102198;28;19919;-54
2023/02/16 09:10:49;;;;;;;;;;;;;;;;;;5092071;28;19915;-52
2023/02/16 09:13:15;;;;;;;;;;;;;;;;;;5092147;28;19912;-50
2023/02/16 09:15:41;;;;;;;;;;;;;;;;;;5092019;28;19965;-53
2023/02/16 09:18:14;;;;;;;;;;;;;;;;;;5099519;28;19912;-55
2023/02/16 09:20:40;;;;;;;;;;;;;;;;;;5112363;28;19912;-51
2023/02/16 09:23:06;;;;;;;;;;;;;;;;;;5107293;28;20377;-52
2023/02/16 09:25:31;;;;;;;;;;;;;;;;;;5091539;28;19912;-51
2023/02/16 09:27:58;;;;;;;;;;;;;;;;;;5091879;28;19912;-51
2023/02/16 09:30:24;;;;;;;;;;;;;;;;;;5092044;28;19908;-51
2023/02/16 09:32:51;;;;;;;;;;;;;;;;;;5091975;28;19911;-52
2023/02/16 09:35:16;;;;;;;;;;;;;;;;;;5095418;28;19916;-54
2023/02/16 09:37:42;;;;;;;;;;;;;;;;;;5095634;28;19905;-52
2023/02/16 09:40:08;;;;;;;;;;;;;;;;;;5095533;28;20054;-49
2023/02/16 09:42:34;;;;;;;;;;;;;;;;;;5095356;28;20154;-49
2023/02/16 09:45:00;;;;;;;;;;;;;;;;;;5094573;28;20355;-48
2023/02/16 09:47:28;;;;;;;;;;;;;;;;;;5112254;28;20056;-50
2023/02/16 09:49:55;;;;;;;;;;;;;;;;;;5115689;28;19943;-49
2023/02/16 09:52:21;;;;;;;;;;;;;;;;;;5115141;28;19958;-50
2023/02/16 09:54:48;;;;;;;;;;;;;;;;;;5115345;28;20003;-50
2023/02/16 09:57:14;;;;;;;;;;;;;;;;;;5113566;28;19908;-50
2023/02/16 09:59:40;;;;;;;;;;;;;;;;;;5114661;28;20003;-52
2023/02/16 10:02:06;;;;;;;;;;;;;;;;;;5095453;28;19955;-51
2023/02/16 10:04:34;;;;;;;;;;;;;;;;;;5114992;28;19947;-49
2023/02/16 10:07:00;;;;;;;;;;;;;;;;;;5115203;28;20017;-50
2023/02/16 10:09:26;;;;;;;;;;;;;;;;;;5115206;28;19953;-48
2023/02/16 10:11:53;;;;;;;;;;;;;;;;;;5115042;28;19954;-50
2023/02/16 10:14:19;;;;;;;;;;;;;;;;;;5114994;28;19915;-49
2023/02/16 10:16:50;;;;;;;;;;;23.40;34.70;;;;;;5114875;28;19912;-50
2023/02/16 10:19:24;;;;;;;;;;;11.30;79.50;;;;;;5115073;28;19916;-51
2023/02/16 10:21:52;;;;;;;;;;;11.00;78.60;;;;;;5114965;28;20391;-48
2023/02/16 10:24:18;;;;;;;;;;;11.10;77.40;;;;;;5114673;28;19952;-52
2023/02/16 10:26:51;;;;;;;;;;;11.10;78.00;;;;;;5114578;28;20105;-52
2023/02/16 10:29:21;;;;;;;;;;;11.20;78.20;;;;;;5114721;28;19908;-48
2023/02/16 10:32:01;;;;;;;;;;;11.30;78.90;;;;;;5114773;28;20041;-52
2023/02/16 10:34:30;;;;;;;;;;;11.40;77.00;;;;;;5114596;28;19908;-50
2023/02/16 10:37:14;;;;;;;;;;;11.40;77.70;;;;;;5114538;28;20395;-52
2023/02/16 10:39:42;;;;;;;;;;;11.50;73.90;;;;;;5114501;28;19919;-54
2023/02/16 10:42:08;;;;;;;;;;;;;;;;;;5114574;28;20493;-49
2023/02/16 10:44:39;;;;;;;;;;;;;;;;;;5113355;28;19949;-52
2023/02/16 10:47:05;;;;;;;;;;;;;;;;;;5114210;28;19911;-53
2023/02/16 10:49:31;;;;;;;;;;;11.60;75.30;;;;;;5114359;28;20299;-49
2023/02/16 10:51:58;;;;;;;;;;;12.00;75.00;;;;;;5114342;28;19914;-49
2023/02/16 10:54:23;;;;;;;;;;;;;;;;;;5114026;28;19914;-51
2023/02/16 10:56:51;;;;;;;;;;;;;;;;;;5114048;28;20275;-49
2023/02/16 10:59:16;;;;;;;;;;;12.00;74.60;;;;;;5114249;28;19908;-51
2023/02/16 11:01:47;;;;;;;;;;;12.00;74.70;;;;;;5114127;28;20003;-50
2023/02/16 11:04:29;;;;;;;;;;;12.00;75.50;;;;;;5114180;28;20359;-48
2023/02/16 11:07:21;;;;;;;;;;;12.00;75.70;;;;;;5113834;28;20134;-50
2023/02/16 11:09:46;;;;;;;;;;;;;;;;;;5109568;28;20211;-51
2023/02/16 11:12:33;;;;;;;;;;;12.00;75.80;;;;;;5113900;28;20374;-50
2023/02/16 11:14:59;;;;;;;;;;;;;;;;;;5113431;28;20385;-48
2023/02/16 11:17:25;;;;;;;;;;;12.10;76.30;;;;;;5113916;28;20415;-53
2023/02/16 11:19:51;;;;;;;;;;;;;;;;;;5111012;28;19950;-48
2023/02/16 11:22:17;;;;;;;;;;;;;;;;;;5096801;28;19952;-52
2023/02/16 11:24:43;;;;;;;;;;;;;;;;;;5091384;28;19908;-49
2023/02/16 11:27:09;;;;;;;;;;;;;;;;;;5095999;28;19984;-48
2023/02/16 11:29:35;;;;;;;;;;;;;;;;;;5083927;28;19912;-50
2023/02/16 11:32:01;;;;;;;;;;;;;;;;;;5071862;28;20011;-49
2023/02/16 11:34:27;;;;;;;;;;;;;;;;;;5086552;28;20403;-49
2023/02/16 11:37:00;;;;;;;;;;;12.50;76.70;;;;;;5092987;28;19912;-48
2023/02/16 11:39:26;;;;;;;;;;;;;;;;;;5096016;28;20287;-52
2023/02/16 11:41:52;;;;;;;;;;;;;;;;;;5092994;28;19908;-47
2023/02/16 11:44:18;;;;;;;;;;;;;;;;;;5092299;28;19912;-50
2023/02/16 11:46:45;;;;;;;;;;;;;;;;;;5092057;28;19916;-49
2023/02/16 11:49:11;;;;;;;;;;;;;;;;;;5092818;28;20269;-50
2023/02/16 11:51:37;;;;;;;;;;;;;;;;;;5095970;28;20433;-50
2023/02/16 11:54:03;;;;;;;;;;;;;;;;;;5091667;28;19912;-50
2023/02/16 11:56:29;;;;;;;;;;;;;;;;;;5092042;28;20018;-49
2023/02/16 11:58:55;;;;;;;;;;;;;;;;;;5101764;28;20296;-50
2023/02/16 12:01:21;;;;;;;;;;;;;;;;;;5073548;28;19912;-48
2023/02/16 12:03:47;;;;;;;;;;;;;;;;;;5086977;28;19920;-49
2023/02/16 12:06:13;;;;;;;;;;;;;;;;;;5097145;28;20440;-48
2023/02/16 12:08:39;;;;;;;;;;;;;;;;;;5112497;28;20295;-50
2023/02/16 12:11:05;;;;;;;;;;;;;;;;;;5112546;28;20149;-49
2023/02/16 12:13:31;;;;;;;;;;;;;;;;;;5094518;28;19908;-49
2023/02/16 12:15:57;;;;;;;;;;;;;;;;;;5093431;28;20377;-50
2023/02/16 12:18:23;;;;;;;;;;;;;;;;;;5077544;28;20326;-47
2023/02/16 12:20:49;;;;;;;;;;;;;;;;;;5092207;28;19973;-48
2023/02/16 12:23:16;;;;;;;;;;;;;;;;;;5092415;28;19912;-53
2023/02/16 12:25:42;;;;;;;;;;;;;;;;;;5097314;28;20319;-52
2023/02/16 12:28:08;;;;;;;;;;;;;;;;;;5109030;28;20026;-52
2023/02/16 12:30:35;;;;;;;;;;;;;;;;;;5078819;28;19916;-53
2023/02/16 12:33:02;;;;;;;;;;;;;;;;;;5092227;28;19974;-52
2023/02/16 12:35:30;;;;;;;;;;;12.80;74.50;;;;;;5097324;28;20315;-52
2023/02/16 12:38:15;;;;;;;;;;;14.60;67.90;;;;;;5104300;28;19912;-49
2023/02/16 12:40:41;;;;;;;;;;;;;;;;;;5112342;28;19948;-49
2023/02/16 12:43:07;;;;;;;;;;;;;;;;;;5112537;28;19908;-51
2023/02/16 12:45:33;;;;;;;;;;;;;;;;;;5095078;28;19912;-50
2023/02/16 12:47:59;;;;;;;;;;;;;;;;;;5105126;28;20019;-49
2023/02/16 12:50:26;;;;;;;;;;;;;;;;;;5093434;28;19949;-51
2023/02/16 12:52:52;;;;;;;;;;;;;;;;;;5111863;28;20379;-51
2023/02/16 12:55:18;;;;;;;;;;;;;;;;;;5112384;28;19915;-51
2023/02/16 12:57:44;;;;;;;;;;;;;;;;;;5110742;28;20291;-53
2023/02/16 13:00:10;;;;;;;;;;;;;;;;;;5098817;28;19913;-54
2023/02/16 13:02:39;;;;;;;;;;;;;;;;;;5106651;28;19912;-54
2023/02/16 13:05:07;;;;;;;;;;;;;;;;;;5112234;28;20083;-51
2023/02/16 13:07:33;;;;;;;;;;;;;;;;;;5111609;28;19916;-49
2023/02/16 13:09:59;;;;;;;;;;;;;;;;;;5097238;28;19972;-53
2023/02/16 13:12:25;;;;;;;;;;;;;;;;;;5077749;28;20003;-54
2023/02/16 13:14:51;;;;;;;;;;;;;;;;;;5095540;28;19940;-50
2023/02/16 13:17:17;;;;;;;;;;;;;;;;;;5095775;28;19960;-53
2023/02/16 13:19:43;;;;;;;;;;;;;;;;;;5096196;28;20268;-50
2023/02/16 13:22:09;;;;;;;;;;;;;;;;;;5077579;28;20356;-51
2023/02/16 13:24:35;;;;;;;;;;;;;;;;;;5077473;28;20002;-49
2023/02/16 13:27:01;;;;;;;;;;;;;;;;;;5095072;28;20390;-52
2023/02/16 13:29:27;;;;;;;;;;;;;;;;;;5095396;28;20376;-56
2023/02/16 13:31:53;;;;;;;;;;;;;;;;;;5095459;28;19935;-49
2023/02/16 13:34:19;;;;;;;;;;;;;;;;;;5108218;28;20375;-51
2023/02/16 13:36:45;;;;;;;;;;;;;;;;;;5115779;28;19918;-53
2023/02/16 13:39:11;;;;;;;;;;;;;;;;;;5115271;28;19939;-54
2023/02/16 13:41:37;;;;;;;;;;;;;;;;;;5115988;28;19954;-53
2023/02/16 13:44:03;;;;;;;;;;;;;;;;;;5105840;28;19940;-55
2023/02/16 13:46:29;;;;;;;;;;;;;;;;;;5095067;28;19912;-54
2023/02/16 13:48:55;;;;;;;;;;;;;;;;;;5076822;28;19919;-49
2023/02/16 13:51:21;;;;;;;;;;;;;;;;;;5094771;28;19919;-52
2023/02/16 13:53:47;;;;;;;;;;;;;;;;;;5083933;28;19908;-50
2023/02/16 13:56:13;;;;;;;;;;;;;;;;;;5097020;28;19912;-53
2023/02/16 13:58:39;;;;;;;;;;;;;;;;;;5101537;28;19933;-49
2023/02/16 14:01:05;;;;;;;;;;;;;;;;;;5094946;28;19916;-49
2023/02/16 14:03:31;;;;;;;;;;;;;;;;;;5095049;28;19915;-50
2023/02/16 14:05:57;;;;;;;;;;;;;;;;;;5094659;28;19919;-51
2023/02/16 14:08:23;;;;;;;;;;;;;;;;;;5093566;28;19919;-49
2023/02/16 14:10:49;;;;;;;;;;;;;;;;;;5094915;28;19912;-46
2023/02/16 14:13:15;;;;;;;;;;;;;;;;;;5094423;28;19908;-49
2023/02/16 14:15:41;;;;;;;;;;;;;;;;;;5093945;28;19922;-50
2023/02/16 14:18:07;;;;;;;;;;;;;;;;;;5096024;28;19951;-52
2023/02/16 14:20:33;;;;;;;;;;;;;;;;;;5093889;28;19958;-51
2023/02/16 14:22:59;;;;;;;;;;;;;;;;;;5097875;28;19915;-52
2023/02/16 14:25:26;;;;;;;;;;;;;;;;;;5106662;28;19965;-52
2023/02/16 14:27:52;;;;;;;;;;;;;;;;;;5103368;28;19923;-56
2023/02/16 14:30:18;;;;;;;;;;;;;;;;;;5094507;28;20006;-51
2023/02/16 14:32:44;;;;;;;;;;;;;;;;;;5109544;28;19911;-55
2023/02/16 14:35:09;;;;;;;;;;;;;;;;;;5109041;28;19988;-54
2023/02/16 14:37:35;;;;;;;;;;;;;;;;;;5101050;28;20337;-53
2023/02/16 14:40:01;;;;;;;;;;;;;;;;;;5106666;28;20352;-50
2023/02/16 14:42:27;;;;;;;;;;;;;;;;;;5099062;28;19915;-53
2023/02/16 14:44:53;;;;;;;;;;;;;;;;;;5094013;28;19912;-50
2023/02/16 14:47:19;;;;;;;;;;;;;;;;;;5094132;28;20299;-51
2023/02/16 14:49:45;;;;;;;;;;;;;;;;;;5097578;28;19920;-51
2023/02/16 14:52:11;;;;;;;;;;;;;;;;;;5097056;28;19919;-49
2023/02/16 14:54:37;;;;;;;;;;;;;;;;;;5095308;28;19908;-54
2023/02/16 14:57:03;;;;;;;;;;;;;;;;;;5105061;28;19908;-49
2023/02/16 14:59:29;;;;;;;;;;;;;;;;;;5094008;28;20365;-50
2023/02/16 15:01:55;;;;;;;;;;;;;;;;;;5094261;28;19938;-49
2023/02/16 15:04:22;;;;;;;;;;;;;;;;;;5075539;28;19950;-54
2023/02/16 15:06:48;;;;;;;;;;;;;;;;;;5093685;28;19916;-54
2023/02/16 15:09:14;;;;;;;;;;;;;;;;;;5105458;28;19915;-51
2023/02/16 15:12:20;;;;;;;;;;;;;;;;;;5096036;28;19924;-51
2023/02/16 15:14:25;;;;;;;;;;;;;;;;;;5082399;28;19912;-51
2023/02/16 15:16:52;;;;;;;;;;;;;;;;;;5092303;28;20000;-53
2023/02/16 15:19:19;;;;;;;;;;;;;;;;;;5093452;28;19931;-52
2023/02/16 15:21:45;;;;;;;;;;;;;;;;;;5075331;28;19908;-55
2023/02/16 15:24:20;;;;;;;;;;;14.50;68.00;;;;;;5093294;28;19919;-53
2023/02/16 15:26:52;;;;;;;;;;;26.80;42.40;;;;;;5093079;28;19916;-49
2023/02/16 15:29:25;;;;;;;;;;;26.30;37.70;;;;;;5093266;28;19912;-53
2023/02/16 15:31:51;;;;;;;;;;;26.00;36.50;;;;;;5102416;28;19911;-50
2023/02/16 15:34:33;;;;;;;;;;;26.00;36.80;;;;;;5095605;28;19915;-52
2023/02/16 15:36:59;;;;;;;;;;;;;;;;;;5097343;28;20295;-53
2023/02/16 15:39:25;;;;;;;;;;;;;;;;;;5100577;28;19916;-53
2023/02/16 15:41:51;;;;;;;;;;;;;;;;;;5092873;28;20273;-53
2023/02/16 15:44:17;;;;;;;;;;;;;;;;;;5093054;28;19958;-51
2023/02/16 15:46:44;;;;;;;;;;;;;;;;;;5103690;28;19911;-55
2023/02/16 15:49:10;;;;;;;;;;;;;;;;;;5092441;28;20372;-52
2023/02/16 15:51:37;;;;;;;;;;;;;;;;;;5092359;28;19934;-52
2023/02/16 15:54:04;;;;;;;;;;;25.50;37.00;;;;;;5082798;28;19908;-51
2023/02/16 15:56:32;;;;;;;;;;;18.60;48.20;;;;;;5107130;28;20417;-54
2023/02/16 15:58:58;;;;;;;;;;;;;;;;;;5112327;28;19915;-51
2023/02/16 16:01:24;;;;;;;;;;;;;;;;;;5091342;28;19915;-52
2023/02/16 16:03:51;;;;;;;;;;;;;;;;;;5108454;28;20283;-53
2023/02/16 16:06:17;;;;;;;;;;;;;;;;;;5112924;28;20368;-49
2023/02/16 16:08:43;;;;;;;;;;;;;;;;;;5112980;28;19911;-51
2023/02/16 16:11:09;;;;;;;;;;;;;;;;;;5094791;28;19908;-52
2023/02/16 16:13:35;;;;;;;;;;;;;;;;;;5113091;28;19932;-51
2023/02/16 16:16:03;;;;;;;;;;;;;;;;;;5112742;28;20006;-50
2023/02/16 16:18:29;;;;;;;;;;;;;;;;;;5112930;28;20365;-49
2023/02/16 16:20:55;;;;;;;;;;;;;;;;;;5112898;28;20061;-49
2023/02/16 16:23:21;;;;;;;;;;;;;;;;;;5112666;28;19973;-51
2023/02/16 16:25:47;;;;;;;;;;;;;;;;;;5112404;28;20321;-49
2023/02/16 16:28:13;;;;;;;;;;;;;;;;;;5106599;28;19916;-52
2023/02/16 16:30:44;;;;;;;;;;;;;;;;;;5092386;28;19947;-50
2023/02/16 16:33:10;;;;;;;;;;;;;;;;;;5092534;28;20284;-49
2023/02/16 16:35:36;;;;;;;;;;;;;;;;;;5091655;28;19999;-51
2023/02/16 16:38:02;;;;;;;;;;;;;;;;;;5090940;28;19958;-53
2023/02/16 16:40:28;;;;;;;;;;;;;;;;;;5092090;28;19908;-51
2023/02/16 16:42:54;;;;;;;;;;;;;;;;;;5094323;28;19908;-55
2023/02/16 16:45:20;;;;;;;;;;;;;;;;;;5096343;28;19908;-50
2023/02/16 16:47:46;;;;;;;;;;;;;;;;;;5096133;28;19912;-49
2023/02/16 16:50:13;;;;;;;;;;;;;;;;;;5096281;28;20442;-50
2023/02/16 16:52:39;;;;;;;;;;;;;;;;;;5096151;28;19908;-52
2023/02/16 16:55:05;;;;;;;;;;;;;;;;;;5077995;28;20073;-49
2023/02/16 16:57:31;;;;;;;;;;;;;;;;;;5096247;28;20364;-49
2023/02/16 16:59:57;;;;;;;;;;;;;;;;;;5096099;28;19914;-49
2023/02/16 17:02:23;;;;;;;;;;;;;;;;;;5077791;28;19947;-50
2023/02/16 17:04:49;;;;;;;;;;;;;;;;;;5095881;28;20284;-53
2023/02/16 17:07:15;;;;;;;;;;;;;;;;;;5095916;28;19919;-52